Algoma, Mississippi
Current Conditions -  °F | °C
As of 5:53 AM on Thursday 29 Jan 2015 (Local Time) from KTUP Reporting Station
Overcast Overcast  
Wind Chill: 41°   Ceiling: 9500
Heat Index: 46°   Visibility: 10mi
Dew Point: 34°   Wind: 9mph
Humidity: 63%   Direction: 190°S
Pressure: 30.13"   Gusts: NA
Location:  34.18°N, 89.03°W
Report Text: KTUP 291153Z 19008KT 10SM OVC095 08/01 A3013 RMK AO2 SLP203 T00780011 10083 20061 55004
Loading
Personal Weather Stations






























Interactive Weather Map New forecast layout! Learn more

10-Day Weather Forecast

Advertisements
Track Severe Weather on mobile